Data for 12/24/2007

Time Sea-Level Adjusted Pressure Absolute Pressure Temperature Relative Humidity Dew Point   
(mb) (inHg) (mb) (inHg) (C) (F) (%) (C) (F)
00:05 1016 30 845 24.95 -1.9 28.7 67 -7.3 18.9
00:10 1016 30 845 24.95 -1.7 28.9 65 -7.4 18.6
00:15 1016 30 845 24.95 -1.5 29.2 65 -7.2 19.1
00:20 1016 30 845 24.95 -1.4 29.4 66 -7.1 19.3
00:25 1016 30 845 24.95 -1.3 29.6 66 -6.9 19.6
00:30 1016 30 845 24.95 -1.4 29.4 67 -6.7 19.9
00:35 1016 30 845 24.95 -1.5 29.3 67 -7 19.5
00:40 1016 30 845 24.95 -1.6 29.2 66 -7.1 19.2
00:45 1015 29.97 845 24.95 -1.3 29.6 65 -7.1 19.2
00:50 1015 29.97 845 24.95 -1 30.2 65 -6.7 20
00:55 1015 29.97 845 24.95 -1 30.3 68 -6.1 21
01:00 1015 29.97 844 24.92 -1 30.2 69 -6.1 21.1
01:05 1015 29.97 844 24.92 -1.1 30.1 70 -5.9 21.4
01:10 1015 29.97 844 24.92 -1.1 30 70 -5.9 21.4
01:15 1015 29.97 844 24.92 -1.1 30 70 -5.9 21.3
01:20 1015 29.97 844 24.92 -0.8 30.6 69 -5.8 21.6
01:25 1015 29.97 844 24.92 -0.7 30.8 69 -5.6 21.8
01:30 1015 29.97 844 24.92 -0.6 30.9 69 -5.5 22.1
01:35 1015 29.97 844 24.92 -0.6 30.9 70 -5.5 22.2
01:40 1015 29.97 844 24.92 -0.5 31.1 69 -5.5 22.1
01:45 1015 29.97 844 24.92 -0.3 31.5 69 -5.4 22.3
01:50 1015 29.97 844 24.92 -0.1 31.8 67 -5.6 22
01:55 1014 29.94 844 24.92 0.2 32.3 66 -5.5 22.2
02:00 1014 29.94 844 24.92 0.4 32.8 65 -5.4 22.3
02:05 1014 29.94 844 24.92 0.5 33 66 -5.2 22.7
02:10 1014 29.94 844 24.92 0.6 33 65 -5.2 22.6
02:15 1014 29.94 843 24.89 0.7 33.3 65 -5.1 22.8
02:20 1014 29.94 843 24.89 0.9 33.6 64 -5.2 22.7
02:25 1014 29.94 843 24.89 1 33.8 65 -4.8 23.3
02:30 1014 29.94 844 24.92 1 33.7 66 -4.8 23.4
02:35 1014 29.94 844 24.92 0.9 33.6 66 -4.7 23.5
02:40 1014 29.94 844 24.92 0.9 33.6 66 -4.8 23.4
02:45 1014 29.94 844 24.92 0.9 33.7 65 -4.8 23.3
02:50 1014 29.94 843 24.89 1 33.8 65 -4.8 23.3
02:55 1014 29.94 843 24.89 1.2 34.1 64 -4.8 23.3
03:00 1014 29.94 843 24.89 1.2 34.2 64 -4.8 23.4
03:05 1014 29.94 843 24.89 1.1 33.9 66 -4.5 23.9
03:10 1014 29.94 843 24.89 0.8 33.5 67 -4.7 23.6
03:15 1014 29.94 843 24.89 0.9 33.6 67 -4.5 23.9
03:20 1014 29.94 843 24.89 0.8 33.4 67 -4.7 23.6
03:25 1014 29.94 843 24.89 0.8 33.5 67 -4.7 23.6
03:30 1013 29.91 843 24.89 0.9 33.6 66 -4.7 23.5
03:35 1013 29.91 843 24.89 1 33.8 66 -4.6 23.6
03:40 1013 29.91 842 24.86 1.1 34 66 -4.5 23.8
03:45 1013 29.91 842 24.86 1.1 34 66 -4.5 23.8
03:50 1013 29.91 842 24.86 1.3 34.3 65 -4.7 23.6
03:55 1013 29.91 842 24.86 1.5 34.7 65 -4.4 24.1
04:00 1013 29.91 842 24.86 1.5 34.7 65 -4.3 24.2
04:05 1013 29.91 842 24.86 1.6 34.8 65 -4.3 24.3
04:10 1013 29.91 842 24.86 1.4 34.6 67 -4.1 24.6
04:15 1013 29.91 842 24.86 1.5 34.6 66 -4.2 24.5
04:20 1013 29.91 842 24.86 1.6 34.8 67 -4 24.8
04:25 1012 29.88 842 24.86 1.5 34.7 68 -3.8 25.1
04:30 1012 29.88 842 24.86 1.5 34.7 67 -3.9 25
04:35 1012 29.88 841 24.83 1.5 34.6 68 -3.8 25.2
04:40 1012 29.88 841 24.83 1.6 34.8 68 -3.6 25.5
04:45 1012 29.88 841 24.83 1.5 34.6 68 -3.8 25.2
04:50 1012 29.88 841 24.83 1.8 35.3 65 -4 24.8
04:55 1012 29.88 841 24.83 2.2 35.9 64 -3.8 25.1
05:00 1012 29.88 841 24.83 2.2 36 66 -3.4 25.9
05:05 1011 29.85 841 24.83 2 35.6 66 -3.6 25.5
05:10 1011 29.85 840 24.81 2.1 35.7 66 -3.5 25.6
05:15 1011 29.85 840 24.81 2.1 35.8 66 -3.7 25.4
05:20 1011 29.85 840 24.81 2.2 36 67 -3.3 26
05:25 1011 29.85 840 24.81 2.1 35.8 67 -3.3 26
05:30 1011 29.85 840 24.81 2 35.6 68 -3.2 26.2
05:35 1011 29.85 840 24.81 1.9 35.4 68 -3.4 25.9
05:40 1011 29.85 840 24.81 2.2 35.9 67 -3.4 25.9
05:45 1011 29.85 840 24.81 2.7 36.9 63 -3.6 25.5
05:50 1011 29.85 840 24.81 3.5 38.3 62 -3.1 26.4
05:55 1011 29.85 840 24.81 3.5 38.2 64 -2.8 27
06:00 1011 29.85 840 24.81 3.2 37.7 65 -2.8 27
06:05 1011 29.85 840 24.81 2.9 37.2 66 -2.8 27
06:10 1010 29.83 840 24.81 2.7 36.9 65 -3.1 26.4
06:15 1010 29.83 840 24.81 3 37.3 63 -3.3 26
06:20 1010 29.83 839 24.78 3.3 37.9 63 -3 26.6
06:25 1010 29.83 839 24.78 3.6 38.6 61 -3.3 26.1
06:30 1010 29.83 840 24.81 4 39.2 61 -2.8 26.9
06:35 1010 29.83 839 24.78 3.8 38.9 61 -3.1 26.5
06:40 1010 29.83 839 24.78 3.7 38.7 58 -3.7 25.4
06:45 1010 29.83 839 24.78 3.9 39 58 -3.6 25.5
06:50 1010 29.83 839 24.78 3.9 39 58 -3.7 25.4
06:55 1010 29.83 839 24.78 3.8 38.8 59 -3.5 25.6
07:00 1010 29.83 839 24.78 3.9 39 58 -3.5 25.6
07:05 1010 29.83 839 24.78 4 39.2 59 -3.3 26
07:10 1009 29.8 839 24.78 4 39.1 60 -3.1 26.3
07:15 1010 29.83 839 24.78 4 39.2 59 -3.2 26.2
07:20 1009 29.8 839 24.78 4 39.2 60 -3.1 26.4
07:25 1009 29.8 839 24.78 4 39.1 59 -3.3 26.1
07:30 1009 29.8 839 24.78 4 39.2 61 -2.9 26.8
07:35 1009 29.8 839 24.78 3.8 38.9 61 -3 26.7
07:40 1009 29.8 838 24.75 3.8 38.9 60 -3.1 26.3
07:45 1009 29.8 838 24.75 3.8 38.9 62 -2.8 27
07:50 1009 29.8 838 24.75 3.5 38.3 63 -2.9 26.8
07:55 1009 29.8 838 24.75 3.1 37.5 68 -2.3 27.8
08:00 1009 29.8 838 24.75 2.3 36.2 71 -2.3 27.8
08:05 1009 29.8 838 24.75 1.9 35.4 72 -2.6 27.4
08:10 1009 29.8 838 24.75 1.8 35.2 73 -2.6 27.2
08:15 1009 29.8 838 24.75 2 35.5 71 -2.8 27
08:20 1009 29.8 838 24.75 2.2 36 68 -3 26.6
08:25 1009 29.8 838 24.75 2.7 36.8 66 -3 26.7
08:30 1009 29.8 839 24.78 2.8 37.1 66 -3 26.7
08:35 1009 29.8 839 24.78 2.8 37 67 -2.8 27
08:40 1010 29.83 839 24.78 2.5 36.4 70 -2.5 27.6
08:45 1010 29.83 839 24.78 2 35.6 72 -2.6 27.4
08:50 1010 29.83 839 24.78 1.6 34.9 77 -2.1 28.3
08:55 1010 29.83 840 24.81 1.1 33.9 85 -1.3 29.7
09:00 1011 29.85 840 24.81 0.5 33 88 -1.3 29.7
09:05 1011 29.85 840 24.81 0.7 33.2 86 -1.3 29.6
09:10 1011 29.85 840 24.81 1 33.9 89 -0.6 30.8
09:15 1011 29.85 840 24.81 1.2 34.1 89 -0.5 31.1
09:20 1011 29.85 841 24.83 1.4 34.5 89 -0.2 31.7
09:25 1012 29.88 841 24.83 1.1 33.9 92 -0.1 31.9
09:30 1012 29.88 841 24.83 0.9 33.6 93 -0.1 31.9
09:35 1012 29.88 841 24.83 0.7 33.2 95 -0.1 31.8
09:40 1012 29.88 841 24.83 0.5 32.9 96 -0.1 31.9
09:45 1012 29.88 841 24.83 0.4 32.7 97 -0.1 31.9
09:50 1012 29.88 842 24.86 0.4 32.6 98 0 32
09:55 1013 29.91 842 24.86 0.2 32.4 98 -0.1 31.9
10:00 1013 29.91 842 24.86 0.1 32.2 98 -0.1 31.8
10:05 1013 29.91 842 24.86 0.1 32.2 99 -0.1 31.9
10:10 1013 29.91 842 24.86 0.1 32.2 99 -0.1 31.8
10:15 1013 29.91 842 24.86 0 32.1 99 -0.1 31.8
10:20 1013 29.91 842 24.86 0 32.1 99 -0.1 31.8
10:25 1013 29.91 842 24.86 0.1 32.1 99 -0.1 31.8
10:30 1013 29.91 842 24.86 0.1 32.2 99 -0.1 31.9
10:35 1013 29.91 842 24.86 0.1 32.2 99 -0.1 31.9
10:40 1013 29.91 842 24.86 0.2 32.3 99 -0 31.9
10:45 1013 29.91 842 24.86 0.1 32.3 99 -0 31.9
10:50 1013 29.91 842 24.86 0.1 32.2 99 -0.1 31.8
10:55 1013 29.91 842 24.86 0 32.1 98 -0.2 31.7
11:00 1013 29.91 842 24.86 -0 32 99 -0.2 31.6
11:05 1013 29.91 842 24.86 -0 32 99 -0.2 31.6
11:10 1013 29.91 842 24.86 -0 31.9 99 -0.2 31.6
11:15 1013 29.91 842 24.86 -0 31.9 99 -0.2 31.6
11:20 1013 29.91 842 24.86 -0 32 99 -0.2 31.7
11:25 1013 29.91 842 24.86 0 32.1 99 -0.1 31.8
11:30 1013 29.91 842 24.86 0 32.1 99 -0.1 31.7
11:35 1013 29.91 842 24.86 -0 32 99 -0.2 31.6
11:40 1013 29.91 842 24.86 -0.1 31.9 99 -0.2 31.6
11:45 1013 29.91 842 24.86 -0.1 31.8 99 -0.3 31.5
11:50 1013 29.91 842 24.86 -0.2 31.7 98 -0.4 31.3
11:55 1013 29.91 842 24.86 -0.2 31.6 98 -0.5 31.2
12:00 1013 29.91 842 24.86 -0.3 31.5 98 -0.5 31.1
12:05 1013 29.91 842 24.86 -0.4 31.4 98 -0.7 30.8
12:10 1013 29.91 842 24.86 -0.5 31.1 98 -0.8 30.5
12:15 1013 29.91 842 24.86 -0.7 30.7 98 -1 30.2
12:20 1013 29.91 842 24.86 -0.9 30.5 98 -1.1 29.9
12:25 1013 29.91 842 24.86 -0.9 30.3 98 -1.3 29.7
12:30 1013 29.91 842 24.86 -1.1 30 98 -1.4 29.5
12:35 1013 29.91 843 24.89 -1.2 29.9 98 -1.5 29.4
12:40 1014 29.94 843 24.89 -1.2 29.9 98 -1.4 29.4
12:45 1013 29.91 843 24.89 -1.2 29.9 98 -1.4 29.4
12:50 1013 29.91 843 24.89 -1.2 29.9 98 -1.5 29.4
12:55 1014 29.94 843 24.89 -1.2 29.8 98 -1.6 29.1
13:00 1013 29.91 843 24.89 -1.4 29.4 96 -1.9 28.5
13:05 1013 29.91 843 24.89 -1.7 29 96 -2.2 28.1
13:10 1013 29.91 843 24.89 -1.7 28.9 97 -2.2 28
13:15 1014 29.94 843 24.89 -1.7 29 96 -2.2 28.1
13:20 1014 29.94 843 24.89 -1.6 29.1 97 -2.1 28.2
13:25 1014 29.94 843 24.89 -1.5 29.2 97 -2 28.4
13:30 1013 29.91 843 24.89 -1.6 29.2 97 -2 28.3
13:35 1014 29.94 843 24.89 -1.8 28.7 95 -2.5 27.4
13:40 1014 29.94 843 24.89 -2.2 28.1 96 -2.7 27.1
13:45 1014 29.94 843 24.89 -2.2 28 97 -2.7 27.1
13:50 1014 29.94 843 24.89 -2.1 28.2 92 -3.2 26.2
13:55 1014 29.94 843 24.89 -2.1 28.2 94 -3 26.6
14:00 1014 29.94 843 24.89 -2.2 28 92 -3.4 25.9
14:05 1014 29.94 843 24.89 -2.3 27.9 91 -3.5 25.7
14:10 1014 29.94 843 24.89 -2.3 27.9 92 -3.4 25.8
14:15 1014 29.94 843 24.89 -2.5 27.5 93 -3.4 25.8
14:20 1014 29.94 843 24.89 -2.6 27.3 95 -3.3 26
14:25 1014 29.94 843 24.89 -2.5 27.5 94 -3.3 26
14:30 1014 29.94 843 24.89 -2.5 27.5 94 -3.4 26
14:35 1014 29.94 843 24.89 -2.4 27.7 93 -3.4 25.8
14:40 1014 29.94 844 24.92 -2.5 27.6 95 -3.1 26.4
14:45 1014 29.94 844 24.92 -2.4 27.6 96 -3 26.7
14:50 1015 29.97 844 24.92 -2.4 27.7 96 -3 26.6
14:55 1015 29.97 844 24.92 -2.5 27.6 95 -3.1 26.4
15:00 1014 29.94 844 24.92 -2.5 27.4 95 -3.3 26.1
15:05 1015 29.97 844 24.92 -2.7 27.2 95 -3.4 25.9
15:10 1015 29.97 844 24.92 -2.8 27 95 -3.5 25.7
15:15 1015 29.97 844 24.92 -2.8 26.9 95 -3.6 25.6
15:20 1015 29.97 844 24.92 -2.9 26.8 95 -3.6 25.5
15:25 1015 29.97 844 24.92 -3 26.6 93 -3.9 24.9
15:30 1015 29.97 844 24.92 -3.2 26.3 94 -4.1 24.7
15:35 1015 29.97 844 24.92 -3.3 26.1 94 -4.1 24.6
15:40 1015 29.97 844 24.92 -3.3 26 93 -4.3 24.3
15:45 1015 29.97 844 24.92 -3.4 25.9 93 -4.3 24.3
15:50 1015 29.97 844 24.92 -3.5 25.7 93 -4.5 23.9
15:55 1015 29.97 844 24.92 -3.6 25.5 93 -4.6 23.7
16:00 1015 29.97 844 24.92 -3.7 25.3 93 -4.7 23.5
16:05 1015 29.97 844 24.92 -3.8 25.2 92 -4.8 23.3
16:10 1015 29.97 844 24.92 -3.7 25.3 91 -4.9 23.1
16:15 1015 29.97 844 24.92 -3.6 25.5 88 -5.3 22.5
16:20 1015 29.97 844 24.92 -3.5 25.6 88 -5.3 22.5
16:25 1015 29.97 844 24.92 -3.6 25.5 90 -5 22.9
16:30 1015 29.97 844 24.92 -3.7 25.3 88 -5.5 22.1
16:35 1015 29.97 844 24.92 -3.5 25.7 84 -5.9 21.4
16:40 1015 29.97 844 24.92 -3.4 26 81 -6.2 20.8
16:45 1015 29.97 844 24.92 -3.3 26.1 81 -6 21.2
16:50 1015 29.97 844 24.92 -3.2 26.3 78 -6.4 20.5
16:55 1015 29.97 845 24.95 -3.1 26.4 79 -6.2 20.8
17:00 1015 29.97 845 24.95 -3.2 26.3 82 -5.9 21.4
17:05 1016 30 845 24.95 -3.2 26.2 80 -6.2 20.8
17:10 1016 30 845 24.95 -3.2 26.2 78 -6.5 20.3
17:15 1016 30 845 24.95 -3.2 26.2 80 -6.1 21
17:20 1016 30 845 24.95 -3.2 26.2 81 -6.1 21
17:25 1016 30 845 24.95 -3.2 26.2 79 -6.4 20.4
17:30 1016 30 845 24.95 -3.3 26.1 78 -6.6 20.1
17:35 1016 30 845 24.95 -3.1 26.3 75 -6.9 19.5
17:40 1016 30 845 24.95 -3.1 26.4 74 -7.1 19.1
17:45 1016 30 845 24.95 -3.1 26.3 73 -7.3 18.9
17:50 1016 30 845 24.95 -3.3 26.1 74 -7.3 18.9
17:55 1016 30 845 24.95 -3.4 25.9 75 -7.1 19.2
18:00 1016 30 845 24.95 -3.5 25.8 75 -7.3 18.8
18:05 1016 30 845 24.95 -3.5 25.6 75 -7.3 18.8
18:10 1016 30 845 24.95 -3.6 25.6 75 -7.4 18.6
18:15 1016 30 846 24.98 -3.6 25.5 75 -7.4 18.7
18:20 1016 30 845 24.95 -3.7 25.4 73 -7.8 18
18:25 1016 30 846 24.98 -3.9 25 73 -8 17.5
18:30 1016 30 846 24.98 -3.9 24.9 73 -8.1 17.4
18:35 1017 30.03 846 24.98 -3.9 25 74 -7.9 17.7
18:40 1017 30.03 846 24.98 -3.9 25 73 -8.1 17.4
18:45 1017 30.03 846 24.98 -3.9 25.1 70 -8.5 16.7
18:50 1017 30.03 846 24.98 -3.8 25.1 72 -8.1 17.4
18:55 1017 30.03 846 24.98 -3.8 25.1 72 -8.1 17.4
19:00 1017 30.03 846 24.98 -3.9 25 73 -8.1 17.4
19:05 1017 30.03 846 24.98 -4 24.8 72 -8.4 16.9
19:10 1017 30.03 846 24.98 -4 24.8 72 -8.3 17.1
19:15 1017 30.03 846 24.98 -4 24.7 72 -8.4 16.9
19:20 1017 30.03 846 24.98 -4.1 24.6 71 -8.5 16.6
19:25 1017 30.03 846 24.98 -4.2 24.5 72 -8.6 16.6
19:30 1017 30.03 846 24.98 -4.3 24.3 73 -8.5 16.8
19:35 1017 30.03 846 24.98 -4.4 24.1 74 -8.4 17
19:40 1017 30.03 847 25.01 -4.4 24.1 73 -8.5 16.6
19:45 1017 30.03 847 25.01 -4.3 24.3 73 -8.4 16.9
19:50 1018 30.06 847 25.01 -4.2 24.4 73 -8.4 16.8
19:55 1017 30.03 847 25.01 -4.3 24.2 74 -8.4 17
20:00 1017 30.03 847 25.01 -4.4 24 73 -8.5 16.7
20:05 1017 30.03 847 25.01 -4.6 23.7 75 -8.3 17
20:10 1018 30.06 847 25.01 -4.7 23.5 76 -8.4 16.9
20:15 1018 30.06 847 25.01 -4.8 23.4 78 -8 17.6
20:20 1018 30.06 847 25.01 -4.8 23.4 79 -7.9 17.8
20:25 1018 30.06 847 25.01 -4.8 23.4 80 -7.7 18.1
20:30 1018 30.06 847 25.01 -4.8 23.3 80 -7.7 18.1
20:35 1018 30.06 847 25.01 -4.9 23.1 80 -7.8 18
20:40 1018 30.06 847 25.01 -5.1 22.9 79 -8.1 17.4
20:45 1018 30.06 847 25.01 -5 22.9 80 -8 17.7
20:50 1018 30.06 847 25.01 -5 23 80 -7.9 17.7
20:55 1018 30.06 847 25.01 -4.9 23.1 79 -8 17.5
21:00 1018 30.06 847 25.01 -4.9 23.2 80 -7.8 18
21:05 1018 30.06 847 25.01 -4.9 23.2 81 -7.7 18.1
21:10 1018 30.06 847 25.01 -4.8 23.3 79 -7.9 17.7
21:15 1018 30.06 847 25.01 -4.9 23.2 82 -7.5 18.5
21:20 1018 30.06 847 25.01 -4.8 23.4 83 -7.3 18.8
21:25 1018 30.06 847 25.01 -4.8 23.3 80 -7.7 18.1
21:30 1018 30.06 847 25.01 -4.7 23.5 77 -8.2 17.3
21:35 1018 30.06 847 25.01 -4.6 23.8 71 -9 15.8
21:40 1018 30.06 847 25.01 -4.4 24.1 69 -9.3 15.2
21:45 1018 30.06 847 25.01 -4.4 24.2 70 -9.1 15.6
21:50 1018 30.06 847 25.01 -4.3 24.2 69 -9.1 15.6
21:55 1018 30.06 848 25.04 -4.4 24.1 69 -9.3 15.3
22:00 1018 30.06 848 25.04 -4.5 24 68 -9.5 15
22:05 1018 30.06 848 25.04 -4.6 23.8 70 -9.2 15.4
22:10 1018 30.06 848 25.04 -4.8 23.3 70 -9.6 14.8
22:15 1019 30.09 848 25.04 -4.9 23.2 70 -9.5 14.8
22:20 1019 30.09 848 25.04 -4.8 23.3 70 -9.5 14.9
22:25 1019 30.09 848 25.04 -4.8 23.4 69 -9.6 14.8
22:30 1019 30.09 848 25.04 -4.7 23.6 71 -9.2 15.4
22:35 1019 30.09 848 25.04 -4.6 23.7 73 -8.7 16.3
22:40 1019 30.09 848 25.04 -4.6 23.7 75 -8.4 16.8
22:45 1019 30.09 848 25.04 -4.8 23.4 75 -8.6 16.5
22:50 1019 30.09 848 25.04 -4.9 23.3 70 -9.5 14.9
22:55 1019 30.09 849 25.07 -4.8 23.3 73 -8.9 15.9
23:00 1019 30.09 849 25.07 -4.8 23.3 74 -8.8 16.1
23:05 1019 30.09 849 25.07 -4.8 23.3 72 -9 15.7
23:10 1020 30.12 849 25.07 -4.7 23.5 70 -9.5 15
23:15 1020 30.12 849 25.07 -4.6 23.7 69 -9.5 14.9
23:20 1020 30.12 849 25.07 -4.6 23.7 68 -9.6 14.7
23:25 1020 30.12 849 25.07 -4.7 23.5 67 -10 14
23:30 1020 30.12 849 25.07 -4.8 23.3 66 -10.3 13.4
23:35 1020 30.12 849 25.07 -5 23 67 -10.3 13.5
23:40 1020 30.12 849 25.07 -5.1 22.8 67 -10.3 13.5
23:45 1020 30.12 849 25.07 -5.1 22.8 68 -10.2 13.7
23:50 1020 30.12 849 25.07 -5.1 22.8 73 -9.2 15.4
23:55 1020 30.12 849 25.07 -5.2 22.7 70 -9.8 14.3
24:00 1020 30.12 849 25.07 -5.3 22.4 72 -9.7 14.6